Terminal Aerodrome Forecast
Issued by NWS

Current Version | Previous Version | Text Only | Print | Product List | Glossary Off
Versions: 1 2 3 4 5 6 7 8 9 10 11 12 13 14 15 16 17 18 19 20

000
FTUS41 KPBZ 011134
TAFHLG
TAF
KHLG 011134Z 0112/0212 22006KT 2SM BR OVC005
      TEMPO 0112/0113 OVC004
     FM011400 25007KT P6SM BKN015
     FM011600 27010KT P6SM BKN035
     FM012000 28010KT P6SM SCT040
     FM020000 31004KT P6SM SCT250
     FM020900 VRB03KT 2SM BR SCT250=

USA.gov is the U.S. government's official web portal to all federal, state and local government web resources and services.